Detall de PIREP

Printer-friendly versionPDF version

[2008/11/23 14:23:00]
Flight IATA:CT0001
Pilot Number:041
Company ICAO:CAT
Aircraft Type:F50/A
PAX:33
Departing Airport: LEGE
Destination Airport: LEAL
Alternate Airport:LEVC
Online: VATSIM
Route:MAMUK1G B31 SLL B31 BCN B28 BARUS(RODRA) PEXOT B28 EBROX B28 LOTOS B28 SOPET B28 VLC2L
Flight Level:FL190
No Slew and time accel
No pause
Crash detect
Detect pilot in Cockpit between each 30 and 45 minutes
14:23 Zero fuel Weight: 38803 Lbs, Fuel Weight: 5394 Lbs
14:23 VATSIM:LEGE 231330Z VRB01KT 9999 FEW020 SCT040 13/04 Q1012
14:23 VATSIM:LEAL 231330Z 15006KT 110V210 9999 FEW030 20/04 Q1012 NOSIG
14:23 VOICE CATALONIAN
14:25 Parking Brakes off
14:32 Take-off
14:32 Take off Weight: 44112 Lbs
14:32 Wind: 081º @ 001 Knots Heading: 014º
14:32 POS N41º 54´ 35´´ E002º 45´ 49´´
14:32 Flaps:1 at 154 Knots
14:32 Gear Up: 158 Knots
14:33 Flaps:0 at 163 Knots
14:47 Wind:000º@012 K
nots Heading: 178º Ground Speed: 255 Knots Altitude 9314 ft
14:57 TOC
14:57 Fuel Weight: 4577 Lb
15:02 Wind:008º@024 Knots Heading: 226º Ground Speed: 298 Knots Altitude 18979 ft
15:16 TOD
15:16 Fuel Weight: 4099 Lb
15:17 Wind:351º@030 Knots Heading: 235º Ground Speed: 294 Knots Altitude 18120 ft
15:32 Wind:019º@037 Knots Heading: 192º Ground Speed: 288 Knots Altitude 7965 ft
15:47 Wind:028º@005 Knots Heading: 090º Ground Speed: 196 Knots Altitude 3366 ft
15:49 Flaps:1 at 203 Knots
15:49 Gear Down: 177 Knots
15:49 Flaps:2 at 175 Knots
15:50 Flaps:3 at 140 Knots
15:50 Flaps:4 at 128 Knots
15:50 Flaps:5 at 115 Knots
15:50 Flaps:6 at 110 Knots
15:51 TouchDown:Rate -86 ft/min Speed: 91 Knots
15:51 Flaps:0 at 69 Knots
15:51 VATSIM:LEAL 231530Z 12005KT 9999 FEW030 17/08 Q1013 NOSIG
15:51 Land
15:51 Wind:103º@008 Knots
15:51 Heading: 100º
15:51 Flight Duration:
01:19
15:51 Landing Weight: 42187 Lbs
15:51 POS N38º 16´ 54´´ W000º 33´ 19´´
15:56 Parking brakes on
15:56 Block to Block Duration: 01:31
15:56 Final Fuel: 3344 Lbls
15:56 Spent Fuel: 2050 Lbls
15:56 Flight Length: 345 NM
15:56 TOD Land Length: 151 NM

Exportar CSV

Powered by Drupal - Modified by Danger4k